首页
METAR-TAF:

METAR-TAF

机场 :

Scottsbluff, 內布拉斯加州, 美国

纬度: 41-52-01N, 经度: 103-35-09W, 海拔: 1208米

当前天气观测

该预报发布于1小时和12分钟前的23:53 UTC
风速5节,风向多变
温度 27°C
湿度 21%
气压 1013 hPa
能見度: 16.1公里
天空无云

METAR: KBFF 262353Z AUTO VRB05KT 10SM CLR 27/03 A2992 RMK AO2 SLP104 T02720033 10278 20233 56005

时间: 19:05 (01:05 UTC)

预报

该预报发布于1小时和45分钟前的23:20 UTC
预报有效从27日的 00点(UTC)到 27日的 24点(UTC)
风速5节,风向多变
能見度: 10公里
少量云层高于9000英尺

TAF: KBFF 262320Z 2700/2724 VRB05KT P6SM FEW090

超过4000个机场的气象观测和天气预报(METAR&TAF报告)。

可查询的气象台以黄色和红色小点在地图上表示。

将鼠标移到小点上方,可查看气象台名称。

然后点击查看天气观测和预报。

如需切换地图:点击带黑十字的绿色按钮放大地图;点击带横线的绿色按钮缩小地图;或者点击绿色箭头查看邻近地区的地图。


METAR-TAF: